ROMMA est une association bénévole à but non lucratif. Votre soutien est indispensable : ADHERER à ROMMA ou FAIRE un DON

Chambon - (38, Isère)

Oisans (2460 m)   Longitude: 06° 10' 42" E   Latitude: 45° 01' 32" N Station partenaire n°803
 

Détail journalier du     <<     >>

Température Humidité Vent Dir Rafale Dir. rafale Neige 1 Neige 2
Heure (°C) (%) (km/h) (km/h) (cm) (cm)
01:00 -5.89810OSO19OSO186237
02:00 0.006OSO21OSO00
03:00 -7.69713SO24SO185236
04:00 -8.99610SSO24SO185236
05:00 -8.7975NNE19NNE185236
06:00 0.002NNE19NNE00
07:00 -8.8969SO19SO185236
08:00 -8.29611SSO19SO185236
09:00 -7.39610SSO20SO185235
10:00 0.005SO20SO00
11:00 -6.7959ENE26SO184235
12:00 -3.0944ENE18ENE184235
13:00 -4.49612OSO31OSO185235
14:00 0.009OSO31OSO00
15:00 -5.29521SO33SO185235
16:00 -4.99519SO33SO184235
17:00 -5.09617SO28SO184235
18:00 0.009SO28SO00
19:00 -6.69716SO33OSO185235
20:00 -7.29712SO29SO185235
21:00 -7.79711SO28SO184235
22:00 0.007SO28SO00
23:00 -7.89715NE28NE184235
minuit -8.09720NNE29NNE184235

Graphique du 28-04-2019

 

Serveur OMMA